sensor_id;sensor_type;location;lat;lon;timestamp;P1;durP1;ratioP1;P2;durP2;ratioP2
76115;SDS011;64847;45.778;12.802;2022-12-15T00:01:57;8.70;;;7.80;;
76115;SDS011;64847;45.778;12.802;2022-12-15T00:04:41;8.57;;;7.70;;
76115;SDS011;64847;45.778;12.802;2022-12-15T00:07:25;8.20;;;7.40;;
76115;SDS011;64847;45.778;12.802;2022-12-15T00:10:09;8.30;;;7.40;;
76115;SDS011;64847;45.778;12.802;2022-12-15T00:12:53;8.87;;;7.97;;
76115;SDS011;64847;45.778;12.802;2022-12-15T00:15:37;8.77;;;7.57;;
76115;SDS011;64847;45.778;12.802;2022-12-15T00:18:21;8.30;;;7.50;;
76115;SDS011;64847;45.778;12.802;2022-12-15T00:21:05;9.20;;;7.30;;
76115;SDS011;64847;45.778;12.802;2022-12-15T00:23:49;7.27;;;6.50;;
76115;SDS011;64847;45.778;12.802;2022-12-15T00:26:33;7.27;;;6.57;;
76115;SDS011;64847;45.778;12.802;2022-12-15T00:29:17;7.70;;;6.70;;
76115;SDS011;64847;45.778;12.802;2022-12-15T00:32:01;7.93;;;6.67;;
76115;SDS011;64847;45.778;12.802;2022-12-15T00:34:44;8.57;;;7.40;;
76115;SDS011;64847;45.778;12.802;2022-12-15T00:37:28;7.07;;;6.37;;
76115;SDS011;64847;45.778;12.802;2022-12-15T00:40:12;7.17;;;6.53;;
76115;SDS011;64847;45.778;12.802;2022-12-15T00:42:38;7.87;;;7.07;;
76115;SDS011;64847;45.778;12.802;2022-12-15T00:45:03;9.67;;;7.37;;
76115;SDS011;64847;45.778;12.802;2022-12-15T00:47:30;7.33;;;6.63;;
76115;SDS011;64847;45.778;12.802;2022-12-15T00:49:56;7.57;;;6.80;;
76115;SDS011;64847;45.778;12.802;2022-12-15T00:52:40;8.17;;;6.63;;
76115;SDS011;64847;45.778;12.802;2022-12-15T00:55:24;6.97;;;6.27;;
76115;SDS011;64847;45.778;12.802;2022-12-15T00:58:08;8.40;;;7.43;;
76115;SDS011;64847;45.778;12.802;2022-12-15T01:00:52;9.03;;;7.37;;
76115;SDS011;64847;45.778;12.802;2022-12-15T01:03:36;9.17;;;8.27;;
76115;SDS011;64847;45.778;12.802;2022-12-15T01:06:20;9.67;;;8.73;;
76115;SDS011;64847;45.778;12.802;2022-12-15T01:09:04;11.13;;;8.97;;
76115;SDS011;64847;45.778;12.802;2022-12-15T01:11:50;11.73;;;10.53;;
76115;SDS011;64847;45.778;12.802;2022-12-15T01:14:34;11.70;;;10.50;;
76115;SDS011;64847;45.778;12.802;2022-12-15T01:17:18;12.73;;;11.37;;
76115;SDS011;64847;45.778;12.802;2022-12-15T01:20:03;12.63;;;10.97;;
76115;SDS011;64847;45.778;12.802;2022-12-15T01:22:45;12.13;;;10.93;;
76115;SDS011;64847;45.778;12.802;2022-12-15T01:25:12;11.50;;;10.33;;
76115;SDS011;64847;45.778;12.802;2022-12-15T01:27:38;12.03;;;10.77;;
76115;SDS011;64847;45.778;12.802;2022-12-15T01:30:04;13.00;;;10.77;;
76115;SDS011;64847;45.778;12.802;2022-12-15T01:32:30;11.00;;;9.80;;
76115;SDS011;64847;45.778;12.802;2022-12-15T01:34:56;11.50;;;10.07;;
76115;SDS011;64847;45.778;12.802;2022-12-15T01:37:21;10.20;;;9.13;;
76115;SDS011;64847;45.778;12.802;2022-12-15T01:39:46;11.50;;;10.20;;
76115;SDS011;64847;45.778;12.802;2022-12-15T01:42:30;10.27;;;9.03;;
76115;SDS011;64847;45.778;12.802;2022-12-15T01:45:23;10.47;;;9.43;;
76115;SDS011;64847;45.778;12.802;2022-12-15T01:47:59;9.77;;;8.53;;
76115;SDS011;64847;45.778;12.802;2022-12-15T01:50:36;9.80;;;8.80;;
76115;SDS011;64847;45.778;12.802;2022-12-15T01:53:05;10.57;;;9.57;;
76115;SDS011;64847;45.778;12.802;2022-12-15T01:55:30;11.83;;;10.63;;
76115;SDS011;64847;45.778;12.802;2022-12-15T01:57:57;11.87;;;10.70;;
76115;SDS011;64847;45.778;12.802;2022-12-15T02:00:25;15.47;;;10.90;;
76115;SDS011;64847;45.778;12.802;2022-12-15T02:02:52;10.90;;;9.80;;
76115;SDS011;64847;45.778;12.802;2022-12-15T02:05:18;12.60;;;10.53;;
76115;SDS011;64847;45.778;12.802;2022-12-15T02:07:44;10.53;;;9.50;;
76115;SDS011;64847;45.778;12.802;2022-12-15T02:10:09;10.67;;;9.67;;
76115;SDS011;64847;45.778;12.802;2022-12-15T02:18:21;10.33;;;8.93;;
76115;SDS011;64847;45.778;12.802;2022-12-15T02:31:40;11.20;;;10.10;;
76115;SDS011;64847;45.778;12.802;2022-12-15T02:37:03;11.87;;;10.03;;
76115;SDS011;64847;45.778;12.802;2022-12-15T02:39:31;12.50;;;10.07;;
76115;SDS011;64847;45.778;12.802;2022-12-15T02:41:56;11.07;;;9.97;;
76115;SDS011;64847;45.778;12.802;2022-12-15T02:44:38;10.47;;;9.37;;
76115;SDS011;64847;45.778;12.802;2022-12-15T03:01:08;10.40;;;9.40;;
76115;SDS011;64847;45.778;12.802;2022-12-15T03:03:37;10.63;;;9.53;;
76115;SDS011;64847;45.778;12.802;2022-12-15T03:06:04;10.73;;;9.63;;
76115;SDS011;64847;45.778;12.802;2022-12-15T03:08:29;10.47;;;9.37;;
76115;SDS011;64847;45.778;12.802;2022-12-15T03:10:55;11.67;;;10.17;;
76115;SDS011;64847;45.778;12.802;2022-12-15T03:13:21;12.50;;;10.50;;
76115;SDS011;64847;45.778;12.802;2022-12-15T03:15:47;10.57;;;9.47;;
76115;SDS011;64847;45.778;12.802;2022-12-15T03:18:12;10.53;;;9.43;;
76115;SDS011;64847;45.778;12.802;2022-12-15T03:20:38;10.67;;;9.67;;
76115;SDS011;64847;45.778;12.802;2022-12-15T03:23:03;11.20;;;10.00;;
76115;SDS011;64847;45.778;12.802;2022-12-15T03:25:29;10.33;;;9.33;;
76115;SDS011;64847;45.778;12.802;2022-12-15T03:27:54;9.33;;;8.20;;
76115;SDS011;64847;45.778;12.802;2022-12-15T03:30:19;8.77;;;7.77;;
76115;SDS011;64847;45.778;12.802;2022-12-15T03:32:45;7.07;;;6.47;;
76115;SDS011;64847;45.778;12.802;2022-12-15T03:35:10;6.93;;;6.20;;
76115;SDS011;64847;45.778;12.802;2022-12-15T03:37:37;6.80;;;6.10;;
76115;SDS011;64847;45.778;12.802;2022-12-15T03:40:02;6.00;;;5.40;;
76115;SDS011;64847;45.778;12.802;2022-12-15T03:42:28;6.10;;;5.47;;
76115;SDS011;64847;45.778;12.802;2022-12-15T03:45:12;5.93;;;5.43;;
76115;SDS011;64847;45.778;12.802;2022-12-15T03:47:41;5.17;;;4.73;;
76115;SDS011;64847;45.778;12.802;2022-12-15T03:50:07;5.17;;;4.67;;
76115;SDS011;64847;45.778;12.802;2022-12-15T03:52:33;5.80;;;5.30;;
76115;SDS011;64847;45.778;12.802;2022-12-15T03:55:00;5.70;;;5.03;;
76115;SDS011;64847;45.778;12.802;2022-12-15T03:57:25;5.90;;;5.40;;
76115;SDS011;64847;45.778;12.802;2022-12-15T03:59:51;6.50;;;5.43;;
76115;SDS011;64847;45.778;12.802;2022-12-15T04:02:16;6.07;;;5.57;;
76115;SDS011;64847;45.778;12.802;2022-12-15T04:04:41;5.63;;;5.13;;
76115;SDS011;64847;45.778;12.802;2022-12-15T04:07:07;5.37;;;4.80;;
76115;SDS011;64847;45.778;12.802;2022-12-15T04:09:34;5.97;;;5.37;;
76115;SDS011;64847;45.778;12.802;2022-12-15T04:12:00;5.47;;;4.97;;
76115;SDS011;64847;45.778;12.802;2022-12-15T04:14:27;5.80;;;5.30;;
76115;SDS011;64847;45.778;12.802;2022-12-15T04:16:53;5.47;;;4.97;;
76115;SDS011;64847;45.778;12.802;2022-12-15T04:19:19;5.20;;;4.80;;
76115;SDS011;64847;45.778;12.802;2022-12-15T04:22:02;5.77;;;4.93;;
76115;SDS011;64847;45.778;12.802;2022-12-15T04:24:28;6.63;;;5.37;;
76115;SDS011;64847;45.778;12.802;2022-12-15T04:27:12;5.93;;;5.40;;
76115;SDS011;64847;45.778;12.802;2022-12-15T04:29:56;5.50;;;5.00;;
76115;SDS011;64847;45.778;12.802;2022-12-15T04:32:40;5.20;;;4.70;;
76115;SDS011;64847;45.778;12.802;2022-12-15T04:35:23;6.87;;;4.97;;
76115;SDS011;64847;45.778;12.802;2022-12-15T04:38:07;5.57;;;5.07;;
76115;SDS011;64847;45.778;12.802;2022-12-15T04:40:51;5.57;;;5.17;;
76115;SDS011;64847;45.778;12.802;2022-12-15T04:43:35;5.90;;;5.27;;
76115;SDS011;64847;45.778;12.802;2022-12-15T04:46:19;5.53;;;5.03;;
76115;SDS011;64847;45.778;12.802;2022-12-15T04:49:03;5.87;;;5.20;;
76115;SDS011;64847;45.778;12.802;2022-12-15T04:51:47;5.93;;;5.37;;
76115;SDS011;64847;45.778;12.802;2022-12-15T04:54:31;5.00;;;4.60;;
76115;SDS011;64847;45.778;12.802;2022-12-15T04:57:15;5.57;;;5.07;;
76115;SDS011;64847;45.778;12.802;2022-12-15T04:59:59;4.87;;;4.47;;
76115;SDS011;64847;45.778;12.802;2022-12-15T05:02:42;5.37;;;4.90;;
76115;SDS011;64847;45.778;12.802;2022-12-15T05:05:27;5.50;;;4.97;;
76115;SDS011;64847;45.778;12.802;2022-12-15T05:08:10;5.07;;;4.67;;
76115;SDS011;64847;45.778;12.802;2022-12-15T05:10:57;5.97;;;5.10;;
76115;SDS011;64847;45.778;12.802;2022-12-15T05:13:41;5.43;;;4.93;;
76115;SDS011;64847;45.778;12.802;2022-12-15T05:16:25;4.70;;;4.37;;
76115;SDS011;64847;45.778;12.802;2022-12-15T05:19:09;5.63;;;4.77;;
76115;SDS011;64847;45.778;12.802;2022-12-15T05:21:53;4.93;;;4.53;;
76115;SDS011;64847;45.778;12.802;2022-12-15T05:24:37;5.13;;;4.73;;
76115;SDS011;64847;45.778;12.802;2022-12-15T05:27:21;6.00;;;5.30;;
76115;SDS011;64847;45.778;12.802;2022-12-15T05:30:05;4.90;;;4.50;;
76115;SDS011;64847;45.778;12.802;2022-12-15T05:32:49;5.20;;;4.70;;
76115;SDS011;64847;45.778;12.802;2022-12-15T05:35:15;5.40;;;4.90;;
76115;SDS011;64847;45.778;12.802;2022-12-15T05:37:40;5.43;;;4.97;;
76115;SDS011;64847;45.778;12.802;2022-12-15T05:40:06;4.93;;;4.53;;
76115;SDS011;64847;45.778;12.802;2022-12-15T05:42:32;4.80;;;4.40;;
76115;SDS011;64847;45.778;12.802;2022-12-15T05:44:57;5.20;;;4.17;;
76115;SDS011;64847;45.778;12.802;2022-12-15T05:47:22;5.07;;;4.67;;
76115;SDS011;64847;45.778;12.802;2022-12-15T05:49:48;5.17;;;4.77;;
76115;SDS011;64847;45.778;12.802;2022-12-15T05:52:13;4.57;;;4.17;;
76115;SDS011;64847;45.778;12.802;2022-12-15T05:54:39;5.50;;;5.00;;
76115;SDS011;64847;45.778;12.802;2022-12-15T05:57:04;5.10;;;4.67;;
76115;SDS011;64847;45.778;12.802;2022-12-15T05:59:30;4.90;;;4.50;;
76115;SDS011;64847;45.778;12.802;2022-12-15T06:01:56;5.20;;;4.27;;
76115;SDS011;64847;45.778;12.802;2022-12-15T06:04:21;4.80;;;4.40;;
76115;SDS011;64847;45.778;12.802;2022-12-15T06:06:47;5.37;;;4.83;;
76115;SDS011;64847;45.778;12.802;2022-12-15T06:09:12;4.80;;;4.30;;
76115;SDS011;64847;45.778;12.802;2022-12-15T06:11:37;5.00;;;4.33;;
76115;SDS011;64847;45.778;12.802;2022-12-15T06:14:03;5.03;;;4.60;;
76115;SDS011;64847;45.778;12.802;2022-12-15T06:16:28;5.00;;;4.50;;
76115;SDS011;64847;45.778;12.802;2022-12-15T06:18:57;5.17;;;4.67;;
76115;SDS011;64847;45.778;12.802;2022-12-15T06:21:25;4.73;;;4.33;;
76115;SDS011;64847;45.778;12.802;2022-12-15T06:23:53;4.67;;;4.30;;
76115;SDS011;64847;45.778;12.802;2022-12-15T06:28:47;4.83;;;4.43;;
76115;SDS011;64847;45.778;12.802;2022-12-15T06:31:14;4.77;;;4.30;;
76115;SDS011;64847;45.778;12.802;2022-12-15T06:33:39;4.90;;;4.27;;
76115;SDS011;64847;45.778;12.802;2022-12-15T06:36:06;4.90;;;4.50;;
76115;SDS011;64847;45.778;12.802;2022-12-15T06:38:37;4.27;;;3.93;;
76115;SDS011;64847;45.778;12.802;2022-12-15T06:41:03;4.80;;;4.40;;
76115;SDS011;64847;45.778;12.802;2022-12-15T06:43:30;4.43;;;4.00;;
76115;SDS011;64847;45.778;12.802;2022-12-15T06:45:57;4.73;;;4.23;;
76115;SDS011;64847;45.778;12.802;2022-12-15T06:48:23;4.20;;;3.90;;
76115;SDS011;64847;45.778;12.802;2022-12-15T06:50:49;4.53;;;4.10;;
76115;SDS011;64847;45.778;12.802;2022-12-15T06:53:16;5.17;;;4.00;;
76115;SDS011;64847;45.778;12.802;2022-12-15T06:55:42;4.27;;;3.90;;
76115;SDS011;64847;45.778;12.802;2022-12-15T06:58:08;4.60;;;4.20;;
76115;SDS011;64847;45.778;12.802;2022-12-15T07:00:37;5.33;;;4.17;;
76115;SDS011;64847;45.778;12.802;2022-12-15T07:03:07;4.07;;;3.77;;
76115;SDS011;64847;45.778;12.802;2022-12-15T07:05:36;4.10;;;3.70;;
76115;SDS011;64847;45.778;12.802;2022-12-15T07:08:02;4.00;;;3.60;;
76115;SDS011;64847;45.778;12.802;2022-12-15T07:10:27;3.87;;;3.57;;
76115;SDS011;64847;45.778;12.802;2022-12-15T07:12:54;4.23;;;3.93;;
76115;SDS011;64847;45.778;12.802;2022-12-15T07:15:20;3.80;;;3.50;;
76115;SDS011;64847;45.778;12.802;2022-12-15T07:17:46;4.10;;;3.80;;
76115;SDS011;64847;45.778;12.802;2022-12-15T07:20:11;3.90;;;3.60;;
76115;SDS011;64847;45.778;12.802;2022-12-15T07:22:37;3.40;;;3.10;;
76115;SDS011;64847;45.778;12.802;2022-12-15T07:25:02;3.87;;;3.57;;
76115;SDS011;64847;45.778;12.802;2022-12-15T07:27:28;4.13;;;3.80;;
76115;SDS011;64847;45.778;12.802;2022-12-15T07:29:53;3.60;;;3.30;;
76115;SDS011;64847;45.778;12.802;2022-12-15T07:32:19;4.43;;;3.47;;
76115;SDS011;64847;45.778;12.802;2022-12-15T07:34:44;3.53;;;3.23;;
76115;SDS011;64847;45.778;12.802;2022-12-15T07:37:10;3.90;;;3.50;;
76115;SDS011;64847;45.778;12.802;2022-12-15T07:39:35;3.60;;;3.30;;
76115;SDS011;64847;45.778;12.802;2022-12-15T07:42:01;3.83;;;3.43;;
76115;SDS011;64847;45.778;12.802;2022-12-15T07:44:26;3.73;;;3.30;;
76115;SDS011;64847;45.778;12.802;2022-12-15T07:46:53;3.10;;;2.80;;
76115;SDS011;64847;45.778;12.802;2022-12-15T07:49:19;3.07;;;2.87;;
76115;SDS011;64847;45.778;12.802;2022-12-15T07:51:44;3.40;;;3.10;;
76115;SDS011;64847;45.778;12.802;2022-12-15T07:54:10;3.40;;;3.10;;
76115;SDS011;64847;45.778;12.802;2022-12-15T07:56:36;3.20;;;3.00;;
76115;SDS011;64847;45.778;12.802;2022-12-15T07:59:02;3.07;;;2.80;;
76115;SDS011;64847;45.778;12.802;2022-12-15T08:01:28;3.40;;;3.10;;
76115;SDS011;64847;45.778;12.802;2022-12-15T08:03:53;2.97;;;2.67;;
76115;SDS011;64847;45.778;12.802;2022-12-15T08:06:19;3.40;;;3.10;;
76115;SDS011;64847;45.778;12.802;2022-12-15T08:08:45;3.43;;;3.13;;
76115;SDS011;64847;45.778;12.802;2022-12-15T08:11:14;3.73;;;3.30;;
76115;SDS011;64847;45.778;12.802;2022-12-15T08:13:40;3.90;;;3.60;;
76115;SDS011;64847;45.778;12.802;2022-12-15T08:16:06;3.57;;;3.30;;
76115;SDS011;64847;45.778;12.802;2022-12-15T08:18:31;3.37;;;3.07;;
76115;SDS011;64847;45.778;12.802;2022-12-15T08:21:03;4.10;;;3.70;;
76115;SDS011;64847;45.778;12.802;2022-12-15T08:23:30;4.30;;;3.87;;
76115;SDS011;64847;45.778;12.802;2022-12-15T08:26:03;4.10;;;3.63;;
76115;SDS011;64847;45.778;12.802;2022-12-15T08:28:29;3.97;;;3.57;;
76115;SDS011;64847;45.778;12.802;2022-12-15T08:31:00;3.80;;;3.50;;
76115;SDS011;64847;45.778;12.802;2022-12-15T08:33:29;3.77;;;3.47;;
76115;SDS011;64847;45.778;12.802;2022-12-15T08:36:02;4.00;;;3.50;;
76115;SDS011;64847;45.778;12.802;2022-12-15T08:38:30;3.87;;;3.47;;
76115;SDS011;64847;45.778;12.802;2022-12-15T08:40:56;4.07;;;3.30;;
76115;SDS011;64847;45.778;12.802;2022-12-15T08:43:21;3.30;;;3.10;;
76115;SDS011;64847;45.778;12.802;2022-12-15T08:45:47;6.47;;;3.70;;
76115;SDS011;64847;45.778;12.802;2022-12-15T08:48:13;4.40;;;4.00;;
76115;SDS011;64847;45.778;12.802;2022-12-15T08:50:42;4.40;;;3.80;;
76115;SDS011;64847;45.778;12.802;2022-12-15T08:53:09;5.00;;;3.80;;
76115;SDS011;64847;45.778;12.802;2022-12-15T08:55:35;4.40;;;4.00;;
76115;SDS011;64847;45.778;12.802;2022-12-15T08:58:00;5.87;;;4.00;;
76115;SDS011;64847;45.778;12.802;2022-12-15T09:00:26;4.03;;;3.63;;
76115;SDS011;64847;45.778;12.802;2022-12-15T09:02:51;4.97;;;4.00;;
76115;SDS011;64847;45.778;12.802;2022-12-15T09:05:17;4.67;;;4.07;;
76115;SDS011;64847;45.778;12.802;2022-12-15T09:07:42;4.27;;;3.87;;
76115;SDS011;64847;45.778;12.802;2022-12-15T09:10:07;12.67;;;5.83;;
76115;SDS011;64847;45.778;12.802;2022-12-15T09:12:34;18.70;;;6.70;;
76115;SDS011;64847;45.778;12.802;2022-12-15T09:14:59;14.43;;;5.37;;
76115;SDS011;64847;45.778;12.802;2022-12-15T09:17:24;7.97;;;4.60;;
76115;SDS011;64847;45.778;12.802;2022-12-15T09:19:50;5.47;;;4.30;;
76115;SDS011;64847;45.778;12.802;2022-12-15T09:22:17;4.47;;;3.60;;
76115;SDS011;64847;45.778;12.802;2022-12-15T09:24:43;5.00;;;4.10;;
76115;SDS011;64847;45.778;12.802;2022-12-15T09:27:09;5.13;;;3.73;;
76115;SDS011;64847;45.778;12.802;2022-12-15T09:29:34;3.97;;;3.50;;
76115;SDS011;64847;45.778;12.802;2022-12-15T09:32:00;3.50;;;3.20;;
76115;SDS011;64847;45.778;12.802;2022-12-15T09:34:26;3.97;;;3.40;;
76115;SDS011;64847;45.778;12.802;2022-12-15T09:36:51;4.07;;;3.67;;
76115;SDS011;64847;45.778;12.802;2022-12-15T09:39:17;3.93;;;3.53;;
76115;SDS011;64847;45.778;12.802;2022-12-15T09:41:47;3.77;;;3.47;;
76115;SDS011;64847;45.778;12.802;2022-12-15T09:44:16;3.70;;;3.40;;
76115;SDS011;64847;45.778;12.802;2022-12-15T09:49:19;4.17;;;3.77;;
76115;SDS011;64847;45.778;12.802;2022-12-15T09:51:54;4.23;;;3.83;;
76115;SDS011;64847;45.778;12.802;2022-12-15T09:54:25;4.60;;;4.20;;
76115;SDS011;64847;45.778;12.802;2022-12-15T09:56:54;4.17;;;3.77;;
76115;SDS011;64847;45.778;12.802;2022-12-15T10:04:56;4.43;;;3.70;;
76115;SDS011;64847;45.778;12.802;2022-12-15T10:07:27;6.50;;;3.67;;
76115;SDS011;64847;45.778;12.802;2022-12-15T10:09:56;4.20;;;3.60;;
76115;SDS011;64847;45.778;12.802;2022-12-15T10:12:23;5.17;;;3.50;;
76115;SDS011;64847;45.778;12.802;2022-12-15T10:14:59;4.17;;;3.77;;
76115;SDS011;64847;45.778;12.802;2022-12-15T10:17:45;4.07;;;3.67;;
76115;SDS011;64847;45.778;12.802;2022-12-15T10:22:42;5.43;;;4.03;;
76115;SDS011;64847;45.778;12.802;2022-12-15T10:25:15;5.50;;;3.70;;
76115;SDS011;64847;45.778;12.802;2022-12-15T10:30:13;4.00;;;3.60;;
76115;SDS011;64847;45.778;12.802;2022-12-15T10:35:30;4.63;;;4.23;;
76115;SDS011;64847;45.778;12.802;2022-12-15T10:37:58;4.90;;;4.50;;
76115;SDS011;64847;45.778;12.802;2022-12-15T10:43:22;5.97;;;4.83;;
76115;SDS011;64847;45.778;12.802;2022-12-15T10:48:34;5.43;;;4.50;;
76115;SDS011;64847;45.778;12.802;2022-12-15T10:51:35;5.13;;;4.63;;
76115;SDS011;64847;45.778;12.802;2022-12-15T10:56:34;5.80;;;4.67;;
76115;SDS011;64847;45.778;12.802;2022-12-15T10:59:21;4.77;;;4.30;;
76115;SDS011;64847;45.778;12.802;2022-12-15T11:01:50;5.03;;;4.50;;
76115;SDS011;64847;45.778;12.802;2022-12-15T11:06:54;5.27;;;4.63;;
76115;SDS011;64847;45.778;12.802;2022-12-15T11:11:52;4.33;;;4.00;;
76115;SDS011;64847;45.778;12.802;2022-12-15T11:14:44;5.47;;;4.23;;
76115;SDS011;64847;45.778;12.802;2022-12-15T11:17:13;4.73;;;3.93;;
76115;SDS011;64847;45.778;12.802;2022-12-15T11:19:47;5.57;;;3.93;;
76115;SDS011;64847;45.778;12.802;2022-12-15T11:24:46;4.07;;;3.67;;
76115;SDS011;64847;45.778;12.802;2022-12-15T11:27:34;3.83;;;3.53;;
76115;SDS011;64847;45.778;12.802;2022-12-15T11:32:49;3.57;;;3.27;;
76115;SDS011;64847;45.778;12.802;2022-12-15T11:35:27;4.10;;;3.70;;
76115;SDS011;64847;45.778;12.802;2022-12-15T11:38:18;3.90;;;3.50;;
76115;SDS011;64847;45.778;12.802;2022-12-15T11:40:48;3.60;;;3.30;;
76115;SDS011;64847;45.778;12.802;2022-12-15T11:46:25;3.60;;;3.30;;
76115;SDS011;64847;45.778;12.802;2022-12-15T11:52:02;5.20;;;3.80;;
76115;SDS011;64847;45.778;12.802;2022-12-15T11:59:58;3.63;;;3.33;;
76115;SDS011;64847;45.778;12.802;2022-12-15T12:19:09;4.53;;;4.13;;
76115;SDS011;64847;45.778;12.802;2022-12-15T12:21:44;5.00;;;4.17;;
76115;SDS011;64847;45.778;12.802;2022-12-15T12:24:22;4.90;;;4.40;;
76115;SDS011;64847;45.778;12.802;2022-12-15T12:29:33;4.87;;;4.47;;
76115;SDS011;64847;45.778;12.802;2022-12-15T12:32:26;5.10;;;4.60;;
76115;SDS011;64847;45.778;12.802;2022-12-15T12:37:38;9.27;;;5.40;;
76115;SDS011;64847;45.778;12.802;2022-12-15T12:43:03;13.37;;;5.47;;
76115;SDS011;64847;45.778;12.802;2022-12-15T12:53:46;11.10;;;5.13;;
76115;SDS011;64847;45.778;12.802;2022-12-15T12:59:03;9.87;;;5.07;;
76115;SDS011;64847;45.778;12.802;2022-12-15T13:01:33;6.50;;;4.87;;
76115;SDS011;64847;45.778;12.802;2022-12-15T13:04:08;5.40;;;4.77;;
76115;SDS011;64847;45.778;12.802;2022-12-15T13:14:18;7.03;;;5.33;;
76115;SDS011;64847;45.778;12.802;2022-12-15T13:16:55;7.40;;;6.10;;
76115;SDS011;64847;45.778;12.802;2022-12-15T13:20:03;5.70;;;5.20;;
76115;SDS011;64847;45.778;12.802;2022-12-15T13:22:35;6.13;;;5.30;;
76115;SDS011;64847;45.778;12.802;2022-12-15T13:25:03;7.20;;;5.07;;
76115;SDS011;64847;45.778;12.802;2022-12-15T13:27:52;5.57;;;5.07;;
76115;SDS011;64847;45.778;12.802;2022-12-15T13:30:18;5.90;;;5.30;;
76115;SDS011;64847;45.778;12.802;2022-12-15T13:32:44;5.23;;;4.73;;
76115;SDS011;64847;45.778;12.802;2022-12-15T13:45:51;6.53;;;5.20;;
76115;SDS011;64847;45.778;12.802;2022-12-15T13:51:17;5.83;;;5.07;;
76115;SDS011;64847;45.778;12.802;2022-12-15T13:56:53;5.60;;;5.10;;
76115;SDS011;64847;45.778;12.802;2022-12-15T14:05:05;5.47;;;4.90;;
76115;SDS011;64847;45.778;12.802;2022-12-15T14:07:47;5.50;;;5.00;;
76115;SDS011;64847;45.778;12.802;2022-12-15T14:10:38;5.97;;;5.33;;
76115;SDS011;64847;45.778;12.802;2022-12-15T14:13:18;5.70;;;5.20;;
76115;SDS011;64847;45.778;12.802;2022-12-15T14:21:05;4.63;;;4.23;;
76115;SDS011;64847;45.778;12.802;2022-12-15T14:23:39;4.93;;;4.53;;
76115;SDS011;64847;45.778;12.802;2022-12-15T14:26:09;5.90;;;4.90;;
76115;SDS011;64847;45.778;12.802;2022-12-15T14:28:37;4.70;;;4.30;;
76115;SDS011;64847;45.778;12.802;2022-12-15T14:31:05;4.83;;;4.37;;
76115;SDS011;64847;45.778;12.802;2022-12-15T14:33:42;4.80;;;4.40;;
76115;SDS011;64847;45.778;12.802;2022-12-15T14:36:09;5.67;;;5.17;;
76115;SDS011;64847;45.778;12.802;2022-12-15T14:38:44;4.63;;;4.23;;
76115;SDS011;64847;45.778;12.802;2022-12-15T14:41:21;6.00;;;5.50;;
76115;SDS011;64847;45.778;12.802;2022-12-15T14:43:59;5.53;;;5.03;;
76115;SDS011;64847;45.778;12.802;2022-12-15T14:46:27;5.73;;;5.23;;
76115;SDS011;64847;45.778;12.802;2022-12-15T14:48:57;5.87;;;5.37;;
76115;SDS011;64847;45.778;12.802;2022-12-15T14:51:23;6.57;;;5.87;;
76115;SDS011;64847;45.778;12.802;2022-12-15T14:53:50;5.93;;;5.43;;
76115;SDS011;64847;45.778;12.802;2022-12-15T14:58:42;6.40;;;5.80;;
76115;SDS011;64847;45.778;12.802;2022-12-15T15:04:20;5.93;;;5.43;;
76115;SDS011;64847;45.778;12.802;2022-12-15T15:06:45;6.73;;;6.03;;
76115;SDS011;64847;45.778;12.802;2022-12-15T15:11:47;7.07;;;6.23;;
76115;SDS011;64847;45.778;12.802;2022-12-15T15:14:26;6.70;;;6.10;;
76115;SDS011;64847;45.778;12.802;2022-12-15T15:16:57;7.47;;;6.67;;
76115;SDS011;64847;45.778;12.802;2022-12-15T15:19:26;7.07;;;6.37;;
76115;SDS011;64847;45.778;12.802;2022-12-15T15:21:51;7.60;;;6.83;;
76115;SDS011;64847;45.778;12.802;2022-12-15T15:24:20;6.83;;;6.13;;
76115;SDS011;64847;45.778;12.802;2022-12-15T15:26:47;6.27;;;5.73;;
76115;SDS011;64847;45.778;12.802;2022-12-15T15:32:22;6.77;;;6.17;;
76115;SDS011;64847;45.778;12.802;2022-12-15T15:34:49;7.50;;;5.93;;
76115;SDS011;64847;45.778;12.802;2022-12-15T15:37:19;7.60;;;6.80;;
76115;SDS011;64847;45.778;12.802;2022-12-15T15:39:54;6.33;;;5.83;;
76115;SDS011;64847;45.778;12.802;2022-12-15T15:42:20;7.30;;;6.60;;
76115;SDS011;64847;45.778;12.802;2022-12-15T15:44:46;7.47;;;6.40;;
76115;SDS011;64847;45.778;12.802;2022-12-15T15:47:15;7.43;;;6.70;;
76115;SDS011;64847;45.778;12.802;2022-12-15T15:49:53;7.30;;;6.70;;
76115;SDS011;64847;45.778;12.802;2022-12-15T15:52:19;7.90;;;7.10;;
76115;SDS011;64847;45.778;12.802;2022-12-15T15:54:45;7.67;;;6.63;;
76115;SDS011;64847;45.778;12.802;2022-12-15T15:57:11;7.20;;;6.50;;
76115;SDS011;64847;45.778;12.802;2022-12-15T15:59:39;8.47;;;7.27;;
76115;SDS011;64847;45.778;12.802;2022-12-15T16:02:07;7.90;;;7.10;;
76115;SDS011;64847;45.778;12.802;2022-12-15T16:04:33;7.73;;;6.93;;
76115;SDS011;64847;45.778;12.802;2022-12-15T16:07:01;9.90;;;7.23;;
76115;SDS011;64847;45.778;12.802;2022-12-15T16:09:27;7.10;;;6.30;;
76115;SDS011;64847;45.778;12.802;2022-12-15T16:11:53;7.67;;;6.70;;
76115;SDS011;64847;45.778;12.802;2022-12-15T16:14:18;6.83;;;6.23;;
76115;SDS011;64847;45.778;12.802;2022-12-15T16:16:45;6.60;;;6.00;;
76115;SDS011;64847;45.778;12.802;2022-12-15T16:19:11;8.97;;;6.10;;
76115;SDS011;64847;45.778;12.802;2022-12-15T16:21:37;7.23;;;6.53;;
76115;SDS011;64847;45.778;12.802;2022-12-15T16:24:12;6.47;;;5.97;;
76115;SDS011;64847;45.778;12.802;2022-12-15T16:26:42;6.17;;;5.57;;
76115;SDS011;64847;45.778;12.802;2022-12-15T16:29:15;6.50;;;5.90;;
76115;SDS011;64847;45.778;12.802;2022-12-15T16:31:42;6.83;;;5.87;;
76115;SDS011;64847;45.778;12.802;2022-12-15T16:34:13;7.00;;;6.40;;
76115;SDS011;64847;45.778;12.802;2022-12-15T16:36:40;6.37;;;5.87;;
76115;SDS011;64847;45.778;12.802;2022-12-15T16:41:51;6.80;;;6.10;;
76115;SDS011;64847;45.778;12.802;2022-12-15T16:44:17;5.57;;;5.10;;
76115;SDS011;64847;45.778;12.802;2022-12-15T16:46:43;6.37;;;5.47;;
76115;SDS011;64847;45.778;12.802;2022-12-15T16:49:10;6.43;;;5.87;;
76115;SDS011;64847;45.778;12.802;2022-12-15T16:51:37;6.93;;;6.20;;
76115;SDS011;64847;45.778;12.802;2022-12-15T16:54:04;6.77;;;5.93;;
76115;SDS011;64847;45.778;12.802;2022-12-15T16:56:29;6.07;;;5.47;;
76115;SDS011;64847;45.778;12.802;2022-12-15T16:58:55;6.07;;;5.47;;
76115;SDS011;64847;45.778;12.802;2022-12-15T17:01:21;6.07;;;5.47;;
76115;SDS011;64847;45.778;12.802;2022-12-15T17:03:46;5.93;;;5.37;;
76115;SDS011;64847;45.778;12.802;2022-12-15T17:06:12;6.27;;;5.77;;
76115;SDS011;64847;45.778;12.802;2022-12-15T17:08:41;6.00;;;5.50;;
76115;SDS011;64847;45.778;12.802;2022-12-15T17:11:27;5.83;;;5.33;;
76115;SDS011;64847;45.778;12.802;2022-12-15T17:13:54;6.10;;;5.50;;
76115;SDS011;64847;45.778;12.802;2022-12-15T17:16:21;5.70;;;5.20;;
76115;SDS011;64847;45.778;12.802;2022-12-15T17:18:48;5.80;;;5.30;;
76115;SDS011;64847;45.778;12.802;2022-12-15T17:21:33;5.93;;;5.43;;
76115;SDS011;64847;45.778;12.802;2022-12-15T17:24:05;5.67;;;5.17;;
76115;SDS011;64847;45.778;12.802;2022-12-15T17:26:33;5.97;;;5.47;;
76115;SDS011;64847;45.778;12.802;2022-12-15T17:29:21;5.57;;;5.17;;
76115;SDS011;64847;45.778;12.802;2022-12-15T17:31:45;5.93;;;5.33;;
76115;SDS011;64847;45.778;12.802;2022-12-15T17:34:24;5.73;;;4.93;;
76115;SDS011;64847;45.778;12.802;2022-12-15T17:36:58;5.87;;;5.30;;
76115;SDS011;64847;45.778;12.802;2022-12-15T17:39:27;5.63;;;5.13;;
76115;SDS011;64847;45.778;12.802;2022-12-15T17:41:53;5.80;;;5.30;;
76115;SDS011;64847;45.778;12.802;2022-12-15T17:44:19;6.20;;;5.70;;